createdAt,value
2023-06-03T00:00:28.324Z,28.26
2023-06-03T00:01:28.321Z,28.24
2023-06-03T00:02:28.374Z,28.26
2023-06-03T00:03:28.334Z,28.24
2023-06-03T00:04:28.335Z,28.23
2023-06-03T00:05:28.292Z,28.24
2023-06-03T00:06:28.283Z,28.21
2023-06-03T00:07:28.274Z,28.23
2023-06-03T00:08:28.276Z,28.24
2023-06-03T00:09:28.274Z,28.21
2023-06-03T00:10:28.258Z,28.21
2023-06-03T00:11:28.250Z,28.20
2023-06-03T00:12:28.257Z,28.24
2023-06-03T00:13:28.286Z,28.21
2023-06-03T00:14:28.238Z,28.21
2023-06-03T00:15:28.237Z,28.20
2023-06-03T00:16:28.230Z,28.21
2023-06-03T00:17:28.247Z,28.21
2023-06-03T00:18:28.256Z,28.18
2023-06-03T00:19:28.221Z,28.20
2023-06-03T00:20:28.217Z,28.18
2023-06-03T00:21:28.212Z,28.18
2023-06-03T00:22:28.217Z,28.20
2023-06-03T00:23:28.221Z,28.17
2023-06-03T00:24:28.205Z,28.17
2023-06-03T00:25:28.203Z,28.18
2023-06-03T00:26:28.209Z,28.18
2023-06-03T00:27:28.197Z,28.17
2023-06-03T00:28:28.212Z,28.18
2023-06-03T00:29:28.196Z,28.17
2023-06-03T00:30:28.193Z,28.17
2023-06-03T00:31:28.239Z,28.17
2023-06-03T00:32:28.232Z,28.17
2023-06-03T00:33:28.240Z,28.16
2023-06-03T00:34:28.187Z,28.17
2023-06-03T00:35:28.182Z,28.16
2023-06-03T00:36:28.181Z,28.16
2023-06-03T00:37:28.198Z,28.16
2023-06-03T00:38:28.169Z,28.16
2023-06-03T00:39:28.186Z,28.16
2023-06-03T00:40:30.433Z,28.17
2023-06-03T00:41:28.182Z,28.13
2023-06-03T00:42:28.182Z,28.16
2023-06-03T00:43:28.157Z,28.13
2023-06-03T00:44:28.131Z,28.14
2023-06-03T00:45:28.162Z,28.16
2023-06-03T00:46:28.180Z,28.14
2023-06-03T00:47:28.176Z,28.11
2023-06-03T00:48:28.111Z,28.14
2023-06-03T00:49:28.111Z,28.13
2023-06-03T00:50:28.105Z,28.13
2023-06-03T00:51:28.091Z,28.10
2023-06-03T00:52:28.082Z,28.13
2023-06-03T00:53:28.055Z,28.13
2023-06-03T00:54:28.051Z,28.13
2023-06-03T00:55:28.049Z,28.13
2023-06-03T00:56:28.033Z,28.14
2023-06-03T00:57:28.034Z,28.13
2023-06-03T00:58:28.017Z,28.11
2023-06-03T00:59:28.012Z,28.11
2023-06-03T01:00:28.005Z,28.14
2023-06-03T01:01:28.020Z,28.11
2023-06-03T01:02:28.105Z,28.13
2023-06-03T01:03:28.838Z,28.11
2023-06-03T01:04:28.003Z,28.13
2023-06-03T01:05:27.963Z,28.10
2023-06-03T01:06:27.963Z,28.11
2023-06-03T01:07:27.953Z,28.11
2023-06-03T01:08:27.959Z,28.10
2023-06-03T01:09:27.939Z,28.11
2023-06-03T01:10:27.929Z,28.11
2023-06-03T01:11:27.925Z,28.07
2023-06-03T01:12:27.920Z,28.09
2023-06-03T01:13:27.899Z,28.11
2023-06-03T01:14:27.895Z,28.11
2023-06-03T01:15:27.931Z,28.10
2023-06-03T01:16:27.934Z,28.10
2023-06-03T01:17:27.922Z,28.10
2023-06-03T01:18:27.876Z,28.09
2023-06-03T01:19:27.879Z,28.10
2023-06-03T01:20:28.013Z,28.10
2023-06-03T01:21:27.874Z,28.09
2023-06-03T01:22:27.845Z,28.10
2023-06-03T01:23:28.689Z,28.09
2023-06-03T01:24:27.859Z,28.06
2023-06-03T01:25:27.838Z,28.07
2023-06-03T01:26:27.827Z,28.07
2023-06-03T01:27:27.821Z,28.07
2023-06-03T01:28:27.818Z,28.09
2023-06-03T01:29:27.814Z,28.07
2023-06-03T01:30:27.816Z,28.07
2023-06-03T01:31:27.819Z,28.07
2023-06-03T01:32:27.810Z,28.07
2023-06-03T01:33:27.847Z,28.09
2023-06-03T01:34:27.818Z,28.04
2023-06-03T01:35:27.794Z,28.06
2023-06-03T01:36:27.796Z,28.04
2023-06-03T01:37:27.774Z,28.04
2023-06-03T01:38:27.774Z,28.06
2023-06-03T01:39:27.753Z,28.04
2023-06-03T01:40:27.804Z,28.07
2023-06-03T01:41:27.743Z,28.04
2023-06-03T01:42:27.733Z,28.06
2023-06-03T01:43:27.745Z,28.06
2023-06-03T01:44:27.720Z,28.06
2023-06-03T01:45:27.757Z,28.04
2023-06-03T01:46:27.824Z,28.04
2023-06-03T01:47:27.757Z,28.04
2023-06-03T01:48:27.730Z,28.04
2023-06-03T01:49:27.698Z,28.07
2023-06-03T01:50:27.824Z,28.03
2023-06-03T01:51:27.739Z,28.04
2023-06-03T01:52:27.766Z,28.03
2023-06-03T01:53:27.727Z,28.03
2023-06-03T01:54:27.733Z,28.04
2023-06-03T01:55:27.723Z,28.03
2023-06-03T01:56:27.620Z,28.01
2023-06-03T01:57:28.375Z,28.00
2023-06-03T01:58:27.596Z,28.03
2023-06-03T01:59:27.613Z,28.04
2023-06-03T02:00:27.633Z,28.03
2023-06-03T02:01:27.670Z,28.01
2023-06-03T02:02:27.737Z,28.01
2023-06-03T02:03:27.619Z,28.00
2023-06-03T02:04:27.615Z,28.03
2023-06-03T02:05:27.624Z,28.03
2023-06-03T02:06:27.634Z,28.01
2023-06-03T02:07:27.637Z,28.03
2023-06-03T02:08:28.189Z,28.01
2023-06-03T02:09:27.656Z,28.01
2023-06-03T02:10:27.652Z,28.01
2023-06-03T02:11:27.660Z,27.99
2023-06-03T02:12:27.682Z,28.01
2023-06-03T02:13:27.671Z,27.99
2023-06-03T02:14:27.774Z,28.01
2023-06-03T02:15:27.693Z,28.00
2023-06-03T02:16:27.737Z,28.00
2023-06-03T02:17:27.807Z,27.99
2023-06-03T02:18:27.870Z,28.00
2023-06-03T02:19:27.770Z,27.99
2023-06-03T02:20:27.789Z,28.00
2023-06-03T02:21:27.762Z,27.96
2023-06-03T02:22:27.782Z,27.99
2023-06-03T02:23:27.856Z,27.97
2023-06-03T02:24:27.794Z,27.99
2023-06-03T02:25:27.805Z,27.99
2023-06-03T02:26:27.811Z,27.97
2023-06-03T02:27:27.822Z,27.97
2023-06-03T02:28:27.858Z,28.00
2023-06-03T02:29:27.843Z,27.99
2023-06-03T02:30:27.862Z,28.00
2023-06-03T02:31:27.879Z,28.00
2023-06-03T02:32:27.903Z,27.99
2023-06-03T02:33:27.879Z,27.97
2023-06-03T02:34:27.897Z,27.99
2023-06-03T02:35:27.937Z,27.97
2023-06-03T02:36:27.901Z,27.96
2023-06-03T02:37:27.998Z,27.96
2023-06-03T02:38:28.030Z,27.97
2023-06-03T02:39:27.919Z,27.97
2023-06-03T02:40:27.925Z,27.96
2023-06-03T02:41:27.938Z,27.97
2023-06-03T02:42:28.076Z,27.97
2023-06-03T02:43:27.939Z,27.97
2023-06-03T02:44:28.051Z,27.95
2023-06-03T02:45:28.068Z,27.96
2023-06-03T02:46:28.057Z,27.95
2023-06-03T02:47:27.999Z,27.95
2023-06-03T02:48:27.978Z,27.95
2023-06-03T02:49:28.065Z,27.96
2023-06-03T02:50:28.106Z,27.96
2023-06-03T02:51:28.011Z,27.95
2023-06-03T02:52:28.005Z,27.99
2023-06-03T02:53:28.083Z,27.92
2023-06-03T02:54:28.139Z,27.96
2023-06-03T02:55:28.088Z,27.97
2023-06-03T02:56:28.115Z,27.96
2023-06-03T02:57:28.149Z,27.92
2023-06-03T02:58:28.067Z,27.95
2023-06-03T02:59:28.109Z,27.97
2023-06-03T03:00:28.200Z,27.95
2023-06-03T03:01:28.213Z,27.95
2023-06-03T03:02:28.291Z,27.93
2023-06-03T03:03:28.285Z,27.93
2023-06-03T03:04:28.248Z,27.97
2023-06-03T03:05:28.177Z,27.93
2023-06-03T03:06:28.282Z,27.95
2023-06-03T03:07:28.345Z,27.95
2023-06-03T03:08:28.231Z,27.93
2023-06-03T03:09:28.298Z,27.95
2023-06-03T03:10:28.291Z,27.95
2023-06-03T03:11:28.269Z,27.93
2023-06-03T03:12:28.247Z,27.95
2023-06-03T03:13:28.263Z,27.92
2023-06-03T03:14:28.249Z,27.93
2023-06-03T03:15:28.257Z,27.93
2023-06-03T03:16:28.304Z,27.95
2023-06-03T03:17:28.307Z,27.92
2023-06-03T03:18:28.268Z,27.92
2023-06-03T03:19:28.289Z,27.92
2023-06-03T03:20:28.296Z,27.92
2023-06-03T03:21:28.312Z,27.90
2023-06-03T03:22:28.317Z,27.92
2023-06-03T03:23:28.371Z,27.90
2023-06-03T03:24:28.338Z,27.92
2023-06-03T03:25:28.382Z,27.89
2023-06-03T03:26:28.431Z,27.89
2023-06-03T03:27:28.422Z,27.90
2023-06-03T03:28:28.391Z,27.92
2023-06-03T03:29:28.399Z,27.89
2023-06-03T03:30:28.410Z,27.93
2023-06-03T03:31:28.448Z,27.90
2023-06-03T03:32:28.649Z,27.90
2023-06-03T03:33:28.444Z,27.89
2023-06-03T03:34:28.489Z,27.90
2023-06-03T03:35:28.535Z,27.90
2023-06-03T03:36:28.498Z,27.90
2023-06-03T03:37:28.521Z,27.93
2023-06-03T03:38:28.529Z,27.90
2023-06-03T03:39:28.547Z,27.89
2023-06-03T03:40:28.600Z,27.89
2023-06-03T03:41:28.580Z,27.90
2023-06-03T03:42:28.598Z,27.89
2023-06-03T03:43:28.624Z,27.90
2023-06-03T03:44:28.637Z,27.90
2023-06-03T03:45:28.676Z,27.89
2023-06-03T03:46:28.868Z,27.89
2023-06-03T03:47:28.749Z,27.86
2023-06-03T03:48:28.701Z,27.90
2023-06-03T03:49:28.709Z,27.90
2023-06-03T03:50:28.737Z,27.89
2023-06-03T03:51:28.744Z,27.88
2023-06-03T03:52:28.821Z,27.89
2023-06-03T03:53:28.786Z,27.89
2023-06-03T03:54:28.787Z,27.89
2023-06-03T03:55:30.795Z,27.88
2023-06-03T03:56:28.822Z,27.86
2023-06-03T03:57:28.788Z,27.86
2023-06-03T03:58:28.807Z,27.86
2023-06-03T03:59:28.861Z,27.88
2023-06-03T04:00:28.782Z,27.86
2023-06-03T04:01:28.818Z,27.86
2023-06-03T04:02:28.921Z,27.86
2023-06-03T04:03:28.846Z,27.86
2023-06-03T04:04:28.787Z,27.88
2023-06-03T04:05:28.748Z,27.88
2023-06-03T04:06:28.748Z,27.88
2023-06-03T04:07:28.746Z,27.88
2023-06-03T04:08:28.736Z,27.86
2023-06-03T04:09:28.739Z,27.86
2023-06-03T04:10:28.733Z,27.88
2023-06-03T04:11:28.720Z,27.88
2023-06-03T04:12:28.722Z,27.85
2023-06-03T04:13:28.710Z,27.86
2023-06-03T04:14:28.701Z,27.85
2023-06-03T04:15:28.729Z,27.83
2023-06-03T04:16:28.788Z,27.83
2023-06-03T04:17:28.711Z,27.86
2023-06-03T04:18:28.676Z,27.85
2023-06-03T04:19:28.662Z,27.85
2023-06-03T04:20:28.655Z,27.86
2023-06-03T04:21:28.653Z,27.83
2023-06-03T04:22:28.656Z,27.83
2023-06-03T04:23:29.245Z,27.85
2023-06-03T04:24:29.238Z,27.86
2023-06-03T04:25:28.687Z,27.85
2023-06-03T04:26:28.636Z,27.83
2023-06-03T04:27:28.673Z,27.85
2023-06-03T04:28:28.632Z,27.86
2023-06-03T04:29:28.633Z,27.83
2023-06-03T04:30:28.620Z,27.86
2023-06-03T04:31:28.652Z,27.86
2023-06-03T04:32:28.655Z,27.83
2023-06-03T04:33:28.601Z,27.85
2023-06-03T04:34:28.597Z,27.85
2023-06-03T04:35:28.587Z,27.83
2023-06-03T04:36:28.645Z,27.83
2023-06-03T04:37:28.609Z,27.85
2023-06-03T04:38:28.627Z,27.83
2023-06-03T04:39:28.818Z,27.83
2023-06-03T04:40:28.676Z,27.83
2023-06-03T04:41:28.733Z,27.85
2023-06-03T04:42:28.713Z,27.85
2023-06-03T04:43:28.726Z,27.83
2023-06-03T04:44:28.747Z,27.85
2023-06-03T04:45:28.785Z,27.82
2023-06-03T04:46:28.835Z,27.82
2023-06-03T04:47:28.813Z,27.85
2023-06-03T04:48:28.781Z,27.86
2023-06-03T04:49:28.821Z,27.83
2023-06-03T04:50:30.388Z,27.85
2023-06-03T04:51:29.025Z,27.83
2023-06-03T04:52:29.038Z,27.83
2023-06-03T04:53:29.059Z,27.85
2023-06-03T04:54:29.073Z,27.86
2023-06-03T04:55:29.090Z,27.85
2023-06-03T04:56:29.114Z,27.85
2023-06-03T04:57:29.148Z,27.83
2023-06-03T04:58:29.143Z,27.85
2023-06-03T04:59:29.164Z,27.83
2023-06-03T05:00:29.173Z,27.83
2023-06-03T05:01:29.272Z,27.80
2023-06-03T05:02:29.254Z,27.86
2023-06-03T05:03:29.297Z,27.82
2023-06-03T05:04:29.240Z,27.86
2023-06-03T05:05:29.254Z,27.80
2023-06-03T05:06:29.274Z,27.83
2023-06-03T05:07:29.295Z,27.86
2023-06-03T05:08:29.410Z,27.83
2023-06-03T05:09:29.328Z,27.83
2023-06-03T05:10:29.363Z,27.85
2023-06-03T05:11:29.363Z,27.83
2023-06-03T05:12:29.443Z,27.82
2023-06-03T05:13:29.396Z,27.83
2023-06-03T05:14:29.413Z,27.86
2023-06-03T05:15:29.456Z,27.83
2023-06-03T05:16:29.569Z,27.85
2023-06-03T05:17:29.562Z,27.85
2023-06-03T05:18:29.533Z,27.85
2023-06-03T05:19:29.532Z,27.83
2023-06-03T05:20:29.536Z,27.85
2023-06-03T05:21:29.526Z,27.82
2023-06-03T05:22:29.583Z,27.83
2023-06-03T05:23:29.599Z,27.83
2023-06-03T05:24:29.584Z,27.86
2023-06-03T05:25:29.601Z,27.83
2023-06-03T05:26:29.624Z,27.85
2023-06-03T05:27:29.705Z,27.86
2023-06-03T05:28:29.652Z,27.83
2023-06-03T05:29:29.668Z,27.86
2023-06-03T05:30:29.686Z,27.85
2023-06-03T05:31:29.746Z,27.83
2023-06-03T05:32:29.721Z,27.83
2023-06-03T05:33:29.736Z,27.85
2023-06-03T05:34:29.761Z,27.86
2023-06-03T05:35:29.773Z,27.85
2023-06-03T05:36:29.794Z,27.85
2023-06-03T05:37:29.824Z,27.85
2023-06-03T05:38:29.839Z,27.86
2023-06-03T05:39:29.852Z,27.85
2023-06-03T05:40:29.859Z,27.85
2023-06-03T05:41:29.880Z,27.83
2023-06-03T05:42:29.895Z,27.86
2023-06-03T05:43:29.912Z,27.86
2023-06-03T05:44:29.922Z,27.85
2023-06-03T05:45:29.950Z,27.86
2023-06-03T05:46:30.107Z,27.86
2023-06-03T05:47:30.066Z,27.88
2023-06-03T05:48:29.993Z,27.85
2023-06-03T05:49:30.019Z,27.85
2023-06-03T05:50:30.028Z,27.85
2023-06-03T05:51:30.046Z,27.85
2023-06-03T05:52:30.061Z,27.86
2023-06-03T05:53:30.088Z,27.86
2023-06-03T05:54:30.123Z,27.86
2023-06-03T05:55:30.108Z,27.86
2023-06-03T05:56:30.143Z,27.85
2023-06-03T05:57:30.167Z,27.88
2023-06-03T05:58:30.158Z,27.88
2023-06-03T05:59:30.176Z,27.88
2023-06-03T06:00:30.186Z,27.89
2023-06-03T06:01:30.197Z,27.92
2023-06-03T06:02:30.254Z,27.96
2023-06-03T06:03:30.332Z,27.97
2023-06-03T06:04:30.192Z,28.01
2023-06-03T06:05:30.181Z,28.03
2023-06-03T06:06:30.194Z,28.07
2023-06-03T06:07:30.246Z,28.09
2023-06-03T06:08:30.199Z,28.11
2023-06-03T06:09:30.257Z,28.16
2023-06-03T06:10:30.220Z,28.18
2023-06-03T06:11:30.450Z,28.20
2023-06-03T06:12:30.236Z,28.24
2023-06-03T06:13:30.251Z,28.27
2023-06-03T06:14:30.261Z,28.28
2023-06-03T06:15:30.290Z,28.31
2023-06-03T06:16:30.852Z,28.33
2023-06-03T06:17:30.373Z,28.37
2023-06-03T06:18:30.403Z,28.40
2023-06-03T06:19:30.437Z,28.44
2023-06-03T06:20:30.495Z,28.44
2023-06-03T06:21:30.580Z,28.48
2023-06-03T06:22:30.610Z,28.50
2023-06-03T06:23:30.734Z,28.52
2023-06-03T06:24:30.706Z,28.55
2023-06-03T06:25:30.761Z,28.58
2023-06-03T06:26:30.805Z,28.61
2023-06-03T06:27:30.869Z,28.64
2023-06-03T06:28:30.892Z,28.64
2023-06-03T06:29:31.298Z,28.69
2023-06-03T06:30:30.966Z,28.73
2023-06-03T06:31:31.034Z,28.72
2023-06-03T06:32:31.102Z,28.75
2023-06-03T06:33:31.083Z,28.76
2023-06-03T06:34:31.118Z,28.79
2023-06-03T06:35:31.151Z,28.82
2023-06-03T06:36:31.186Z,28.85
2023-06-03T06:37:31.242Z,28.88
2023-06-03T06:38:31.237Z,28.89
2023-06-03T06:39:31.263Z,28.92
2023-06-03T06:40:31.305Z,28.93
2023-06-03T06:41:31.332Z,28.96
2023-06-03T06:42:31.354Z,29.00
2023-06-03T06:43:31.848Z,28.99
2023-06-03T06:44:31.417Z,28.99
2023-06-03T06:45:31.626Z,28.99
2023-06-03T06:46:31.528Z,28.96
2023-06-03T06:47:31.552Z,28.95
2023-06-03T06:48:31.805Z,28.89
2023-06-03T06:49:31.624Z,28.81
2023-06-03T06:50:31.619Z,28.75
2023-06-03T06:51:31.654Z,28.62
2023-06-03T06:52:31.636Z,28.55
2023-06-03T06:53:31.672Z,28.54
2023-06-03T06:54:31.635Z,28.50
2023-06-03T06:55:31.640Z,28.50
2023-06-03T06:56:31.643Z,28.50
2023-06-03T06:57:31.644Z,28.51
2023-06-03T06:58:31.694Z,28.52
2023-06-03T06:59:31.620Z,28.58
2023-06-03T07:00:31.701Z,28.58
2023-06-03T07:01:31.730Z,28.62
2023-06-03T07:02:31.751Z,28.59
2023-06-03T07:03:31.812Z,28.64
2023-06-03T07:04:31.770Z,28.65
2023-06-03T07:05:31.813Z,28.64
2023-06-03T07:06:31.792Z,28.62
2023-06-03T07:07:31.813Z,28.61
2023-06-03T07:08:31.787Z,28.56
2023-06-03T07:09:31.769Z,28.56
2023-06-03T07:10:31.766Z,28.56
2023-06-03T07:11:31.759Z,28.58
2023-06-03T07:12:31.784Z,28.58
2023-06-03T07:13:31.758Z,28.59
2023-06-03T07:14:31.757Z,28.58
2023-06-03T07:15:31.773Z,28.54
2023-06-03T07:16:31.812Z,28.51
2023-06-03T07:17:31.822Z,28.48
2023-06-03T07:18:31.791Z,28.41
2023-06-03T07:19:31.788Z,28.33
2023-06-03T07:20:31.828Z,28.26
2023-06-03T07:21:31.847Z,28.21
2023-06-03T07:22:31.907Z,28.14
2023-06-03T07:23:31.955Z,28.09
2023-06-03T07:24:32.727Z,28.03
2023-06-03T07:25:31.978Z,28.01
2023-06-03T07:26:31.984Z,27.95
2023-06-03T07:27:32.013Z,27.92
2023-06-03T07:28:32.026Z,27.86
2023-06-03T07:29:31.990Z,27.83
2023-06-03T07:30:31.993Z,27.82
2023-06-03T07:31:32.063Z,27.80
2023-06-03T07:32:32.078Z,27.79
2023-06-03T07:33:32.011Z,27.82
2023-06-03T07:34:32.019Z,27.83
2023-06-03T07:35:32.013Z,27.89
2023-06-03T07:36:32.022Z,27.92
2023-06-03T07:37:32.071Z,27.95
2023-06-03T07:38:32.018Z,27.95
2023-06-03T07:39:32.018Z,27.97
2023-06-03T07:40:32.027Z,27.97
2023-06-03T07:41:32.032Z,28.00
2023-06-03T07:42:32.078Z,28.00
2023-06-03T07:43:32.326Z,28.03
2023-06-03T07:44:32.041Z,28.01
2023-06-03T07:45:32.062Z,27.99
2023-06-03T07:46:32.116Z,28.00
2023-06-03T07:47:32.109Z,28.04
2023-06-03T07:48:32.049Z,28.06
2023-06-03T07:49:32.042Z,28.09
2023-06-03T07:50:32.066Z,28.11
2023-06-03T07:51:32.049Z,28.16
2023-06-03T07:52:32.063Z,28.16
2023-06-03T07:53:33.659Z,28.16
2023-06-03T07:54:32.107Z,28.18
2023-06-03T07:55:32.038Z,28.23
2023-06-03T07:56:32.041Z,28.23
2023-06-03T07:57:32.051Z,28.24
2023-06-03T07:58:32.060Z,28.30
2023-06-03T07:59:32.028Z,28.34
2023-06-03T08:00:32.021Z,28.38
2023-06-03T08:01:32.015Z,28.38
2023-06-03T08:02:32.107Z,28.40
2023-06-03T08:03:32.045Z,28.43
2023-06-03T08:04:32.047Z,28.43
2023-06-03T08:05:31.991Z,28.44
2023-06-03T08:06:32.011Z,28.43
2023-06-03T08:07:31.974Z,28.44
2023-06-03T08:08:31.976Z,28.44
2023-06-03T08:09:31.964Z,28.44
2023-06-03T08:10:31.964Z,28.47
2023-06-03T08:11:32.344Z,28.50
2023-06-03T08:12:31.955Z,28.54
2023-06-03T08:13:31.955Z,28.58
2023-06-03T08:14:31.941Z,28.61
2023-06-03T08:15:31.941Z,28.64
2023-06-03T08:16:32.081Z,28.66
2023-06-03T08:17:31.950Z,28.72
2023-06-03T08:18:31.905Z,28.71
2023-06-03T08:19:31.894Z,28.72
2023-06-03T08:20:31.887Z,28.75
2023-06-03T08:21:31.880Z,28.75
2023-06-03T08:22:31.864Z,28.68
2023-06-03T08:23:31.928Z,28.68
2023-06-03T08:24:31.888Z,28.64
2023-06-03T08:25:31.852Z,28.62
2023-06-03T08:26:31.837Z,28.58
2023-06-03T08:27:31.829Z,28.61
2023-06-03T08:28:31.829Z,28.61
2023-06-03T08:29:31.839Z,28.62
2023-06-03T08:30:31.813Z,28.64
2023-06-03T08:31:31.817Z,28.65
2023-06-03T08:32:31.837Z,28.64
2023-06-03T08:33:31.814Z,28.64
2023-06-03T08:34:31.774Z,28.65
2023-06-03T08:35:31.787Z,28.64
2023-06-03T08:36:31.759Z,28.66
2023-06-03T08:37:31.788Z,28.69
2023-06-03T08:38:31.766Z,28.68
2023-06-03T08:39:31.783Z,28.71
2023-06-03T08:40:31.830Z,28.72
2023-06-03T08:41:31.882Z,28.72
2023-06-03T08:42:31.964Z,28.75
2023-06-03T08:43:32.087Z,28.76
2023-06-03T08:44:32.051Z,28.73
2023-06-03T08:45:32.123Z,28.76
2023-06-03T08:46:32.328Z,28.78
2023-06-03T08:47:32.264Z,28.79
2023-06-03T08:48:32.344Z,28.81
2023-06-03T08:49:32.361Z,28.81
2023-06-03T08:50:32.413Z,28.83
2023-06-03T08:51:32.474Z,28.81
2023-06-03T08:52:32.565Z,28.82
2023-06-03T08:53:32.619Z,28.82
2023-06-03T08:54:32.642Z,28.85
2023-06-03T08:55:32.696Z,28.88
2023-06-03T08:56:32.745Z,28.86
2023-06-03T08:57:32.824Z,28.89
2023-06-03T08:58:32.866Z,28.91
2023-06-03T08:59:32.894Z,28.95
2023-06-03T09:00:32.996Z,28.95
2023-06-03T09:01:33.068Z,28.99
2023-06-03T09:02:33.054Z,29.00
2023-06-03T09:03:33.124Z,28.99
2023-06-03T09:04:33.110Z,29.02
2023-06-03T09:05:33.138Z,29.03
2023-06-03T09:06:33.190Z,28.96
2023-06-03T09:07:33.208Z,29.03
2023-06-03T09:08:33.254Z,29.02
2023-06-03T09:09:33.285Z,29.03
2023-06-03T09:10:33.333Z,29.05
2023-06-03T09:11:33.360Z,29.03
2023-06-03T09:12:33.415Z,29.03
2023-06-03T09:13:33.434Z,29.03
2023-06-03T09:14:33.867Z,29.03
2023-06-03T09:15:33.614Z,29.00
2023-06-03T09:16:33.598Z,29.02
2023-06-03T09:17:33.611Z,29.00
2023-06-03T09:18:33.640Z,29.03
2023-06-03T09:19:33.682Z,29.02
2023-06-03T09:20:33.732Z,29.00
2023-06-03T09:21:33.761Z,29.00
2023-06-03T09:22:33.813Z,28.93
2023-06-03T09:23:33.879Z,28.99
2023-06-03T09:24:33.921Z,28.96
2023-06-03T09:25:33.933Z,28.98
2023-06-03T09:26:33.982Z,28.96
2023-06-03T09:27:34.061Z,28.98
2023-06-03T09:28:34.081Z,28.95
2023-06-03T09:29:34.142Z,28.96
2023-06-03T09:30:34.175Z,28.96
2023-06-03T09:31:34.257Z,28.96
2023-06-03T09:32:34.360Z,28.98
2023-06-03T09:33:34.324Z,28.98
2023-06-03T09:34:34.368Z,28.99
2023-06-03T09:35:34.378Z,28.98
2023-06-03T09:36:34.411Z,29.02
2023-06-03T09:37:34.460Z,29.02
2023-06-03T09:38:34.500Z,29.02
2023-06-03T09:39:34.583Z,29.02
2023-06-03T09:40:34.560Z,29.03
2023-06-03T09:41:34.598Z,29.03
2023-06-03T09:42:34.631Z,29.00
2023-06-03T09:43:34.673Z,29.03
2023-06-03T09:44:34.712Z,28.96
2023-06-03T09:45:34.744Z,28.99
2023-06-03T09:46:34.849Z,28.96
2023-06-03T09:47:34.851Z,28.99
2023-06-03T09:48:34.860Z,29.00
2023-06-03T09:49:49.807Z,29.00
2023-06-03T09:50:34.916Z,28.96
2023-06-03T09:51:34.877Z,28.98
2023-06-03T09:52:34.925Z,28.95
2023-06-03T09:53:34.848Z,28.95
2023-06-03T09:54:34.827Z,28.95
2023-06-03T09:55:34.839Z,28.98
2023-06-03T09:56:34.788Z,28.99
2023-06-03T09:57:34.775Z,28.96
2023-06-03T09:58:34.769Z,28.96
2023-06-03T09:59:34.752Z,28.95
2023-06-03T10:00:34.738Z,28.91
2023-06-03T10:01:34.764Z,28.93
2023-06-03T10:02:34.781Z,28.91
2023-06-03T10:03:34.760Z,28.89
2023-06-03T10:04:34.679Z,28.91
2023-06-03T10:05:34.667Z,28.88
2023-06-03T10:06:34.646Z,28.88
2023-06-03T10:07:34.696Z,28.86
2023-06-03T10:08:34.627Z,28.86
2023-06-03T10:09:34.619Z,28.82
2023-06-03T10:10:34.758Z,28.81
2023-06-03T10:11:34.610Z,28.81
2023-06-03T10:12:34.581Z,28.76
2023-06-03T10:13:34.574Z,28.78
2023-06-03T10:14:34.553Z,28.78
2023-06-03T10:15:34.536Z,28.79
2023-06-03T10:16:34.576Z,28.76
2023-06-03T10:17:37.103Z,28.76
2023-06-03T10:18:34.548Z,28.78
2023-06-03T10:19:34.526Z,28.75
2023-06-03T10:20:34.522Z,28.75
2023-06-03T10:21:34.492Z,28.76
2023-06-03T10:22:34.474Z,28.75
2023-06-03T10:23:34.489Z,28.75
2023-06-03T10:24:34.454Z,28.75
2023-06-03T10:25:34.456Z,28.76
2023-06-03T10:26:34.429Z,28.75
2023-06-03T10:27:34.417Z,28.78
2023-06-03T10:28:34.404Z,28.76
2023-06-03T10:29:34.403Z,28.78
2023-06-03T10:30:34.385Z,28.78
2023-06-03T10:31:34.425Z,28.79
2023-06-03T10:32:34.355Z,28.79
2023-06-03T10:33:34.343Z,28.79
2023-06-03T10:34:34.329Z,28.81
2023-06-03T10:35:34.325Z,28.82
2023-06-03T10:36:34.314Z,28.79
2023-06-03T10:37:34.296Z,28.79
2023-06-03T10:38:34.296Z,28.81
2023-06-03T10:39:34.280Z,28.81
2023-06-03T10:40:34.291Z,28.79
2023-06-03T10:41:34.254Z,28.79
2023-06-03T10:42:34.249Z,28.79
2023-06-03T10:43:34.259Z,28.79
2023-06-03T10:44:34.316Z,28.81
2023-06-03T10:45:34.368Z,28.81
2023-06-03T10:46:34.473Z,28.82
2023-06-03T10:47:34.504Z,28.81
2023-06-03T10:48:34.549Z,28.81
2023-06-03T10:49:34.582Z,28.78
2023-06-03T10:50:34.626Z,28.82
2023-06-03T10:51:34.680Z,28.81
2023-06-03T10:52:34.720Z,28.79
2023-06-03T10:53:34.793Z,28.81
2023-06-03T10:54:34.810Z,28.81
2023-06-03T10:55:34.879Z,28.78
2023-06-03T10:56:34.990Z,28.82
2023-06-03T10:57:34.940Z,28.78
2023-06-03T10:58:34.996Z,28.81
2023-06-03T10:59:35.022Z,28.82
2023-06-03T11:00:35.067Z,28.79
2023-06-03T11:01:35.135Z,28.79
2023-06-03T11:02:35.183Z,28.78
2023-06-03T11:03:35.205Z,28.79
2023-06-03T11:04:35.224Z,28.78
2023-06-03T11:05:35.257Z,28.79
2023-06-03T11:06:35.300Z,28.81
2023-06-03T11:07:35.324Z,28.81
2023-06-03T11:08:35.415Z,28.81
2023-06-03T11:09:35.416Z,28.78
2023-06-03T11:10:35.450Z,28.81
2023-06-03T11:11:35.479Z,28.76
2023-06-03T11:12:35.523Z,28.78
2023-06-03T11:13:35.562Z,28.78
2023-06-03T11:14:35.616Z,28.78
2023-06-03T11:15:35.634Z,28.79
2023-06-03T11:16:35.855Z,28.79
2023-06-03T11:17:35.724Z,28.81
2023-06-03T11:18:35.764Z,28.79
2023-06-03T11:19:35.812Z,28.78
2023-06-03T11:20:35.839Z,28.78
2023-06-03T11:21:35.882Z,28.79
2023-06-03T11:22:35.955Z,28.79
2023-06-03T11:23:36.009Z,28.78
2023-06-03T11:24:36.003Z,28.75
2023-06-03T11:25:36.050Z,28.81
2023-06-03T11:26:36.095Z,28.76
2023-06-03T11:27:36.139Z,28.78
2023-06-03T11:28:36.827Z,28.78
2023-06-03T11:29:36.248Z,28.78
2023-06-03T11:30:36.259Z,28.78
2023-06-03T11:31:36.379Z,28.81
2023-06-03T11:32:36.384Z,28.78
2023-06-03T11:33:36.379Z,28.79
2023-06-03T11:34:36.413Z,28.79
2023-06-03T11:35:36.451Z,28.78
2023-06-03T11:36:36.504Z,28.78
2023-06-03T11:37:36.547Z,28.78
2023-06-03T11:38:36.591Z,28.78
2023-06-03T11:39:36.634Z,28.76
2023-06-03T11:40:36.676Z,28.76
2023-06-03T11:41:36.741Z,28.79
2023-06-03T11:42:36.743Z,28.78
2023-06-03T11:43:36.792Z,28.78
2023-06-03T11:44:36.821Z,28.78
2023-06-03T11:45:36.854Z,28.78
2023-06-03T11:46:36.915Z,28.76
2023-06-03T11:47:37.018Z,28.78
2023-06-03T11:48:37.070Z,28.78
2023-06-03T11:49:37.049Z,28.78
2023-06-03T11:50:37.091Z,28.78
2023-06-03T11:51:37.132Z,28.78
2023-06-03T11:52:37.177Z,28.79
2023-06-03T11:53:37.229Z,28.79
2023-06-03T11:54:37.294Z,28.78
2023-06-03T11:55:37.313Z,28.79
2023-06-03T11:56:37.381Z,28.81
2023-06-03T11:57:37.396Z,28.79
2023-06-03T11:58:37.445Z,28.81
2023-06-03T11:59:37.493Z,28.79
2023-06-03T12:00:37.540Z,28.82
2023-06-03T12:01:37.585Z,28.79
2023-06-03T12:02:39.216Z,28.79
2023-06-03T12:03:37.737Z,28.81
2023-06-03T12:04:37.752Z,28.81
2023-06-03T12:05:37.590Z,28.79
2023-06-03T12:06:37.648Z,28.79
2023-06-03T12:07:37.572Z,28.81
2023-06-03T12:08:38.271Z,28.81
2023-06-03T12:09:37.554Z,28.79
2023-06-03T12:10:37.546Z,28.79
2023-06-03T12:11:37.534Z,28.81
2023-06-03T12:12:37.525Z,28.81
2023-06-03T12:13:37.522Z,28.79
2023-06-03T12:14:37.512Z,28.81
2023-06-03T12:15:37.517Z,28.83
2023-06-03T12:16:37.479Z,28.83
2023-06-03T12:17:37.490Z,28.82
2023-06-03T12:18:37.481Z,28.81
2023-06-03T12:19:37.452Z,28.82
2023-06-03T12:20:37.433Z,28.83
2023-06-03T12:21:37.450Z,28.82
2023-06-03T12:22:37.477Z,28.83
2023-06-03T12:23:37.612Z,28.83
2023-06-03T12:24:37.586Z,28.81
2023-06-03T12:25:37.622Z,28.83
2023-06-03T12:26:37.686Z,28.82
2023-06-03T12:27:37.704Z,28.85
2023-06-03T12:28:37.746Z,28.85
2023-06-03T12:29:37.799Z,28.83
2023-06-03T12:30:39.019Z,28.82
2023-06-03T12:31:38.041Z,28.83
2023-06-03T12:32:38.144Z,28.82
2023-06-03T12:33:37.994Z,28.82
2023-06-03T12:34:38.040Z,28.85
2023-06-03T12:35:38.084Z,28.83
2023-06-03T12:36:38.337Z,28.83
2023-06-03T12:37:38.179Z,28.83
2023-06-03T12:38:38.217Z,28.83
2023-06-03T12:39:38.267Z,28.83
2023-06-03T12:40:38.315Z,28.85
2023-06-03T12:41:38.362Z,28.83
2023-06-03T12:42:38.403Z,28.83
2023-06-03T12:43:38.440Z,28.86
2023-06-03T12:44:38.519Z,28.86
2023-06-03T12:45:38.537Z,28.82
2023-06-03T12:46:38.587Z,28.83
2023-06-03T12:47:38.658Z,28.86
2023-06-03T12:48:38.677Z,28.85
2023-06-03T12:49:38.722Z,28.83
2023-06-03T12:50:38.782Z,28.81
2023-06-03T12:51:38.822Z,28.83
2023-06-03T12:52:38.861Z,28.85